createdAt,value
2022-11-21T00:01:41.713Z,4.68
2022-11-21T00:03:43.683Z,5.13
2022-11-21T00:05:50.868Z,3.85
2022-11-21T00:07:52.567Z,3.50
2022-11-21T00:09:57.269Z,2.22
2022-11-21T00:11:58.802Z,1.70
2022-11-21T00:14:00.599Z,3.97
2022-11-21T00:16:10.320Z,1.83
2022-11-21T00:18:12.918Z,1.30
2022-11-21T00:20:14.728Z,1.65
2022-11-21T00:22:17.593Z,1.08
2022-11-21T00:24:19.225Z,1.73
2022-11-21T00:26:20.669Z,1.98
2022-11-21T00:28:22.406Z,1.95
2022-11-21T00:30:23.997Z,2.47
2022-11-21T00:32:25.832Z,1.17
2022-11-21T00:34:31.230Z,2.10
2022-11-21T00:36:35.732Z,2.22
2022-11-21T00:38:42.427Z,2.30
2022-11-21T00:40:45.113Z,2.80
2022-11-21T00:43:41.986Z,3.00
2022-11-21T00:45:43.563Z,1.35
2022-11-21T00:47:45.233Z,1.05
2022-11-21T00:49:46.950Z,2.60
2022-11-21T00:51:48.480Z,2.65
2022-11-21T00:56:42.788Z,2.13
2022-11-21T01:01:42.910Z,3.92
2022-11-21T01:03:55.325Z,2.08
2022-11-21T01:06:32.554Z,1.90
2022-11-21T01:11:40.236Z,4.40
2022-11-21T01:16:30.565Z,3.75
2022-11-21T01:18:46.883Z,1.75
2022-11-21T01:21:27.869Z,2.40
2022-11-21T01:26:29.714Z,3.38
2022-11-21T01:28:34.511Z,1.77
2022-11-21T01:34:27.494Z,2.15
2022-11-21T01:37:22.936Z,2.35
2022-11-21T01:39:27.427Z,2.17
2022-11-21T01:42:06.676Z,1.45
2022-11-21T01:44:49.291Z,1.77
2022-11-21T01:47:12.555Z,2.63
2022-11-21T01:49:43.067Z,1.85
2022-11-21T01:52:07.511Z,5.32
2022-11-21T01:54:24.350Z,2.58
2022-11-21T01:57:06.837Z,1.60
2022-11-21T01:59:19.577Z,2.55
2022-11-21T02:01:50.591Z,2.92
2022-11-21T02:04:02.948Z,2.50
2022-11-21T02:06:09.268Z,1.98
2022-11-21T02:08:19.961Z,1.60
2022-11-21T02:10:23.023Z,1.25
2022-11-21T02:12:50.340Z,1.75
2022-11-21T02:14:53.796Z,2.53
2022-11-21T02:17:00.343Z,2.03
2022-11-21T02:19:02.138Z,1.40
2022-11-21T02:21:24.507Z,3.97
2022-11-21T02:23:37.721Z,3.33
2022-11-21T02:25:42.336Z,4.10
2022-11-21T02:27:45.253Z,2.83
2022-11-21T02:29:47.282Z,2.13
2022-11-21T02:31:48.789Z,1.42
2022-11-21T02:33:50.252Z,3.33
2022-11-21T02:36:00.510Z,2.13
2022-11-21T02:38:18.219Z,3.00
2022-11-21T02:40:25.612Z,2.03
2022-11-21T02:42:51.456Z,4.13
2022-11-21T02:45:02.012Z,2.63
2022-11-21T02:47:03.705Z,1.88
2022-11-21T02:49:08.435Z,3.10
2022-11-21T02:51:10.272Z,3.63
2022-11-21T02:53:15.164Z,2.90
2022-11-21T02:55:19.154Z,1.98
2022-11-21T02:57:26.892Z,4.30
2022-11-21T02:59:28.426Z,2.40
2022-11-21T03:01:32.972Z,2.75
2022-11-21T03:03:34.541Z,2.70
2022-11-21T03:05:40.345Z,2.03
2022-11-21T03:07:45.846Z,1.52
2022-11-21T03:09:48.803Z,2.17
2022-11-21T03:11:50.651Z,1.05
2022-11-21T03:13:52.209Z,2.38
2022-11-21T03:15:55.500Z,1.30
2022-11-21T03:17:57.906Z,1.58
2022-11-21T03:20:07.095Z,2.13
2022-11-21T03:22:10.216Z,3.50
2022-11-21T03:24:11.797Z,1.30
2022-11-21T03:26:13.427Z,1.63
2022-11-21T03:28:16.084Z,1.08
2022-11-21T03:30:21.665Z,2.10
2022-11-21T03:32:23.092Z,1.77
2022-11-21T03:34:25.517Z,1.35
2022-11-21T03:36:27.551Z,1.38
2022-11-21T03:38:29.094Z,1.30
2022-11-21T03:40:31.100Z,0.98
2022-11-21T03:42:32.825Z,1.73
2022-11-21T03:44:34.230Z,2.15
2022-11-21T03:46:38.945Z,2.20
2022-11-21T03:48:40.558Z,1.30
2022-11-21T03:50:43.745Z,2.40
2022-11-21T03:52:47.679Z,1.00
2022-11-21T03:54:52.247Z,3.63
2022-11-21T03:56:53.897Z,3.88
2022-11-21T03:58:55.640Z,5.75
2022-11-21T04:01:00.104Z,2.20
2022-11-21T04:03:01.925Z,1.73
2022-11-21T04:05:03.734Z,3.55
2022-11-21T04:07:05.389Z,2.92
2022-11-21T04:09:06.944Z,1.60
2022-11-21T04:11:08.881Z,2.78
2022-11-21T04:13:10.579Z,3.55
2022-11-21T04:15:13.928Z,2.53
2022-11-21T04:17:16.898Z,2.67
2022-11-21T04:19:18.566Z,2.75
2022-11-21T04:21:20.188Z,2.30
2022-11-21T04:23:21.806Z,3.38
2022-11-21T04:25:23.368Z,3.10
2022-11-21T04:27:28.082Z,3.03
2022-11-21T04:29:29.733Z,1.92
2022-11-21T04:31:31.393Z,4.38
2022-11-21T04:33:33.562Z,3.75
2022-11-21T04:35:35.267Z,3.38
2022-11-21T04:37:40.381Z,2.35
2022-11-21T04:39:41.961Z,4.65
2022-11-21T04:41:43.674Z,3.13
2022-11-21T04:43:45.475Z,3.25
2022-11-21T04:45:47.258Z,2.30
2022-11-21T04:47:53.437Z,4.80
2022-11-21T04:49:59.658Z,2.45
2022-11-21T04:52:02.888Z,2.72
2022-11-21T04:54:04.728Z,3.08
2022-11-21T04:56:06.820Z,2.42
2022-11-21T04:58:09.246Z,2.20
2022-11-21T05:00:11.852Z,7.05
2022-11-21T05:02:14.742Z,1.25
2022-11-21T05:04:16.284Z,1.92
2022-11-21T05:06:20.391Z,3.20
2022-11-21T05:08:22.008Z,1.90
2022-11-21T05:10:23.720Z,3.25
2022-11-21T05:12:46.357Z,2.42
2022-11-21T05:14:47.985Z,1.88
2022-11-21T05:16:49.713Z,1.85
2022-11-21T05:18:54.076Z,1.50
2022-11-21T05:21:02.555Z,3.85
2022-11-21T05:23:04.209Z,3.35
2022-11-21T05:25:06.267Z,3.05
2022-11-21T05:27:07.931Z,2.28
2022-11-21T05:29:09.599Z,2.67
2022-11-21T05:31:11.213Z,1.13
2022-11-21T05:33:12.712Z,2.47
2022-11-21T05:35:15.294Z,3.17
2022-11-21T05:37:16.946Z,2.00
2022-11-21T05:39:18.650Z,1.75
2022-11-21T05:41:20.282Z,1.65
2022-11-21T05:43:40.498Z,2.42
2022-11-21T05:45:42.100Z,3.67
2022-11-21T05:47:43.726Z,3.47
2022-11-21T05:49:45.327Z,2.35
2022-11-21T05:51:47.059Z,1.88
2022-11-21T05:53:51.650Z,2.10
2022-11-21T05:55:55.785Z,3.00
2022-11-21T05:58:03.610Z,2.75
2022-11-21T06:00:11.648Z,1.90
2022-11-21T06:02:31.664Z,3.90
2022-11-21T06:04:33.274Z,3.30
2022-11-21T06:06:35.346Z,1.58
2022-11-21T06:08:47.034Z,2.88
2022-11-21T06:10:49.053Z,2.55
2022-11-21T06:12:50.808Z,2.20
2022-11-21T06:14:52.505Z,2.03
2022-11-21T06:16:54.130Z,2.45
2022-11-21T06:18:58.627Z,3.88
2022-11-21T06:21:09.748Z,2.45
2022-11-21T06:23:12.343Z,1.48
2022-11-21T06:25:14.316Z,1.55
2022-11-21T06:27:17.326Z,1.75
2022-11-21T06:29:22.117Z,2.08
2022-11-21T06:31:27.934Z,2.00
2022-11-21T06:33:29.418Z,1.50
2022-11-21T06:35:31.938Z,1.45
2022-11-21T06:37:33.622Z,1.73
2022-11-21T06:39:35.488Z,1.52
2022-11-21T06:41:37.423Z,2.03
2022-11-21T06:43:45.839Z,1.83
2022-11-21T06:45:47.926Z,1.63
2022-11-21T06:47:49.523Z,3.00
2022-11-21T06:49:51.240Z,2.38
2022-11-21T06:51:53.190Z,2.33
2022-11-21T06:53:57.246Z,1.60
2022-11-21T06:56:03.105Z,3.28
2022-11-21T06:58:04.623Z,1.33
2022-11-21T07:00:12.715Z,2.10
2022-11-21T07:02:14.701Z,1.63
2022-11-21T07:04:16.406Z,2.13
2022-11-21T07:06:18.043Z,2.00
2022-11-21T07:08:22.616Z,1.55
2022-11-21T07:10:24.301Z,1.77
2022-11-21T07:12:44.435Z,2.35
2022-11-21T07:14:46.167Z,0.93
2022-11-21T07:16:47.765Z,1.15
2022-11-21T07:18:49.334Z,3.38
2022-11-21T07:20:51.326Z,2.22
2022-11-21T07:22:56.921Z,1.30
2022-11-21T07:24:58.528Z,2.45
2022-11-21T07:27:01.547Z,1.60
2022-11-21T07:29:03.126Z,2.67
2022-11-21T07:31:10.114Z,1.48
2022-11-21T07:33:14.758Z,1.25
2022-11-21T07:35:17.539Z,1.60
2022-11-21T07:37:21.489Z,1.95
2022-11-21T07:39:23.208Z,1.83
2022-11-21T07:41:24.766Z,1.48
2022-11-21T07:43:26.394Z,2.20
2022-11-21T07:45:28.205Z,2.22
2022-11-21T07:47:29.774Z,1.88
2022-11-21T07:49:31.630Z,2.80
2022-11-21T07:51:33.516Z,2.53
2022-11-21T07:53:34.960Z,1.92
2022-11-21T07:55:40.633Z,1.73
2022-11-21T07:57:43.047Z,2.92
2022-11-21T07:59:45.551Z,1.67
2022-11-21T08:01:47.284Z,1.85
2022-11-21T08:03:48.919Z,1.73
2022-11-21T08:05:50.612Z,1.75
2022-11-21T08:07:52.744Z,2.22
2022-11-21T08:09:54.560Z,2.42
2022-11-21T08:11:57.958Z,2.28
2022-11-21T08:13:59.788Z,1.75
2022-11-21T08:16:05.239Z,1.55
2022-11-21T08:18:15.187Z,1.92
2022-11-21T08:20:20.341Z,2.28
2022-11-21T08:22:21.917Z,1.42
2022-11-21T08:24:23.759Z,1.80
2022-11-21T08:26:25.519Z,2.83
2022-11-21T08:28:27.323Z,2.53
2022-11-21T08:30:29.280Z,1.65
2022-11-21T08:32:31.194Z,2.80
2022-11-21T08:34:33.175Z,2.30
2022-11-21T08:36:34.698Z,2.80
2022-11-21T08:38:36.375Z,1.15
2022-11-21T08:40:38.029Z,3.88
2022-11-21T08:42:39.617Z,1.95
2022-11-21T08:44:41.209Z,1.67
2022-11-21T08:46:43.096Z,1.48
2022-11-21T08:48:44.667Z,1.40
2022-11-21T08:50:49.181Z,2.13
2022-11-21T08:52:59.439Z,1.83
2022-11-21T08:55:01.373Z,1.42
2022-11-21T08:57:02.874Z,2.17
2022-11-21T08:59:04.637Z,1.63
2022-11-21T09:01:08.910Z,1.58
2022-11-21T09:03:10.544Z,2.25
2022-11-21T09:05:12.051Z,2.65
2022-11-21T09:07:13.596Z,1.58
2022-11-21T09:09:19.355Z,3.17
2022-11-21T09:11:25.210Z,1.48
2022-11-21T09:13:27.736Z,2.60
2022-11-21T09:16:05.136Z,2.58
2022-11-21T09:18:10.127Z,2.55
2022-11-21T09:20:12.051Z,2.88
2022-11-21T09:22:13.655Z,1.75
2022-11-21T09:24:15.582Z,1.92
2022-11-21T09:26:17.206Z,2.15
2022-11-21T09:28:18.933Z,3.83
2022-11-21T09:30:25.680Z,2.25
2022-11-21T09:32:27.208Z,2.08
2022-11-21T09:34:31.809Z,1.60
2022-11-21T09:36:33.497Z,4.68
2022-11-21T09:38:37.518Z,1.75
2022-11-21T09:40:48.964Z,1.02
2022-11-21T09:43:02.715Z,2.65
2022-11-21T09:45:23.438Z,1.50
2022-11-21T09:47:31.707Z,1.65
2022-11-21T09:49:42.382Z,2.75
2022-11-21T09:51:46.195Z,2.45
2022-11-21T09:53:57.504Z,3.05
2022-11-21T09:56:06.307Z,3.78
2022-11-21T09:58:23.599Z,2.05
2022-11-21T10:00:25.663Z,2.55
2022-11-21T10:02:27.295Z,1.75
2022-11-21T10:04:30.164Z,1.65
2022-11-21T10:06:42.385Z,2.50
2022-11-21T10:09:15.057Z,2.20
2022-11-21T10:12:03.151Z,1.88
2022-11-21T10:14:10.967Z,3.10
2022-11-21T10:16:30.517Z,1.40
2022-11-21T10:18:56.865Z,1.25
2022-11-21T10:21:04.902Z,2.70
2022-11-21T10:23:36.473Z,1.90
2022-11-21T10:25:39.512Z,1.98
2022-11-21T10:27:50.308Z,2.15
2022-11-21T10:29:57.799Z,2.90
2022-11-21T10:32:04.928Z,2.58
2022-11-21T10:34:18.163Z,3.50
2022-11-21T10:36:33.610Z,2.88
2022-11-21T10:38:39.014Z,2.35
2022-11-21T10:41:00.889Z,2.72
2022-11-21T10:43:35.401Z,3.15
2022-11-21T10:45:37.221Z,3.97
2022-11-21T10:47:38.923Z,3.67
2022-11-21T10:49:42.257Z,3.72
2022-11-21T10:51:56.532Z,2.55
2022-11-21T10:54:23.479Z,2.78
2022-11-21T10:56:29.077Z,2.33
2022-11-21T10:58:59.536Z,2.88
2022-11-21T11:01:01.527Z,2.60
2022-11-21T11:03:15.868Z,1.52
2022-11-21T11:05:20.903Z,2.75
2022-11-21T11:07:25.286Z,2.35
2022-11-21T11:09:30.352Z,3.38
2022-11-21T11:11:32.275Z,1.70
2022-11-21T11:13:51.040Z,2.28
2022-11-21T11:16:03.882Z,2.15
2022-11-21T11:18:14.049Z,2.10
2022-11-21T11:20:51.878Z,2.40
2022-11-21T11:22:53.569Z,2.95
2022-11-21T11:25:00.250Z,1.85
2022-11-21T11:27:03.737Z,2.55
2022-11-21T11:29:17.452Z,3.15
2022-11-21T11:31:19.241Z,3.00
2022-11-21T11:33:40.877Z,2.70
2022-11-21T11:35:43.475Z,2.75
2022-11-21T11:38:02.715Z,2.20
2022-11-21T11:40:26.265Z,1.95
2022-11-21T11:43:05.047Z,1.92
2022-11-21T11:45:48.707Z,2.88
2022-11-21T11:47:59.770Z,2.17
2022-11-21T11:50:11.556Z,1.20
2022-11-21T11:52:14.988Z,1.55
2022-11-21T11:54:24.413Z,1.75
2022-11-21T11:56:33.337Z,1.30
2022-11-21T11:59:07.469Z,2.40
2022-11-21T12:01:20.685Z,1.52
2022-11-21T12:03:31.916Z,2.72
2022-11-21T12:05:36.830Z,1.73
2022-11-21T12:10:36.065Z,1.38
2022-11-21T12:12:47.672Z,2.05
2022-11-21T12:15:13.931Z,2.83
2022-11-21T12:17:19.866Z,4.03
2022-11-21T12:19:29.184Z,5.78
2022-11-21T12:21:30.880Z,8.55
2022-11-21T12:23:39.252Z,7.85
2022-11-21T12:26:05.672Z,7.05
2022-11-21T12:28:23.472Z,9.38
2022-11-21T12:30:40.359Z,7.32
2022-11-21T12:33:09.026Z,6.45
2022-11-21T12:35:48.137Z,6.50
2022-11-21T12:38:14.155Z,5.65
2022-11-21T12:40:57.102Z,3.85
2022-11-21T12:43:18.760Z,2.45
2022-11-21T12:45:31.660Z,2.25
2022-11-21T12:48:21.149Z,2.17
2022-11-21T12:50:50.082Z,1.75
2022-11-21T12:53:58.564Z,1.95
2022-11-21T12:56:16.670Z,1.90
2022-11-21T12:58:31.061Z,1.33
2022-11-21T13:00:59.109Z,2.90
2022-11-21T13:03:19.087Z,1.65
2022-11-21T13:05:29.802Z,1.17
2022-11-21T13:07:33.240Z,1.77
2022-11-21T13:09:44.820Z,2.67
2022-11-21T13:12:02.197Z,2.00
2022-11-21T13:14:35.414Z,1.40
2022-11-21T13:16:46.567Z,1.65
2022-11-21T13:18:52.862Z,2.88
2022-11-21T13:20:54.443Z,1.75
2022-11-21T13:23:00.805Z,1.23
2022-11-21T13:25:11.687Z,1.85
2022-11-21T13:27:39.380Z,1.20
2022-11-21T13:30:04.962Z,1.70
2022-11-21T13:35:50.671Z,1.40
2022-11-21T13:37:52.498Z,3.03
2022-11-21T13:40:32.046Z,1.65
2022-11-21T13:43:31.916Z,2.90
2022-11-21T13:45:58.487Z,2.95
2022-11-21T13:48:11.477Z,2.30
2022-11-21T13:50:41.930Z,5.18
2022-11-21T13:53:18.875Z,2.78
2022-11-21T13:56:02.420Z,2.70
2022-11-21T13:58:42.357Z,2.30
2022-11-21T14:01:23.258Z,1.95
2022-11-21T14:03:48.609Z,2.38
2022-11-21T14:06:19.615Z,2.88
2022-11-21T14:08:27.235Z,2.38
2022-11-21T14:10:36.940Z,2.10
2022-11-21T14:12:44.598Z,2.22
2022-11-21T14:15:07.240Z,3.08
2022-11-21T14:17:27.837Z,4.15
2022-11-21T14:19:32.192Z,2.33
2022-11-21T14:21:34.439Z,2.40
2022-11-21T14:23:43.760Z,3.70
2022-11-21T14:25:54.053Z,2.30
2022-11-21T14:27:56.371Z,3.70
2022-11-21T14:29:58.307Z,1.52
2022-11-21T14:31:59.912Z,2.58
2022-11-21T14:34:04.146Z,1.45
2022-11-21T14:36:12.421Z,3.33
2022-11-21T14:38:57.507Z,3.38
2022-11-21T14:41:29.357Z,2.75
2022-11-21T14:43:41.288Z,2.90
2022-11-21T14:48:30.324Z,1.50
2022-11-21T14:50:35.225Z,1.90
2022-11-21T14:52:36.843Z,2.30
2022-11-21T14:55:13.400Z,1.00
2022-11-21T14:57:24.000Z,2.30
2022-11-21T14:59:38.675Z,1.80
2022-11-21T15:01:46.304Z,0.85
2022-11-21T15:04:06.365Z,2.35
2022-11-21T15:06:10.845Z,2.22
2022-11-21T15:08:41.659Z,1.55
2022-11-21T15:10:35.863Z,1.95
2022-11-21T15:13:20.325Z,4.28
2022-11-21T15:15:38.692Z,2.58
2022-11-21T15:20:23.840Z,1.70
2022-11-21T15:22:36.293Z,3.28
2022-11-21T15:24:41.689Z,3.15
2022-11-21T15:26:43.437Z,2.65
2022-11-21T15:28:55.123Z,2.65
2022-11-21T15:31:18.899Z,2.20
2022-11-21T15:33:20.904Z,4.10
2022-11-21T15:35:37.885Z,6.32
2022-11-21T15:37:48.715Z,3.50
2022-11-21T15:39:51.444Z,3.17
2022-11-21T15:41:53.245Z,3.08
2022-11-21T15:44:16.489Z,3.90
2022-11-21T15:46:29.445Z,5.05
2022-11-21T15:48:31.230Z,2.25
2022-11-21T15:50:37.413Z,3.67
2022-11-21T15:52:50.305Z,6.18
2022-11-21T15:54:55.140Z,6.72
2022-11-21T15:57:00.241Z,5.28
2022-11-21T15:57:14.938Z,2.35
2022-11-21T15:59:02.597Z,7.65
2022-11-21T16:01:04.971Z,9.32
2022-11-21T16:03:08.664Z,10.90
2022-11-21T16:05:14.785Z,12.93
2022-11-21T16:07:16.898Z,11.85
2022-11-21T16:09:18.559Z,12.82
2022-11-21T16:11:27.047Z,12.98
2022-11-21T16:13:28.735Z,12.95
2022-11-21T16:15:30.582Z,13.63
2022-11-21T16:17:32.236Z,14.57
2022-11-21T16:19:33.814Z,15.43
2022-11-21T16:21:36.336Z,12.40
2022-11-21T16:23:38.431Z,13.25
2022-11-21T16:25:54.439Z,14.07
2022-11-21T16:27:59.851Z,19.63
2022-11-21T16:30:09.099Z,19.48
2022-11-21T16:32:10.916Z,23.00
2022-11-21T16:34:12.566Z,25.88
2022-11-21T16:36:19.946Z,23.50
2022-11-21T16:38:25.376Z,20.25
2022-11-21T16:40:26.981Z,16.05
2022-11-21T16:42:28.548Z,13.55
2022-11-21T16:44:31.157Z,12.20
2022-11-21T16:46:35.567Z,9.75
2022-11-21T16:48:37.787Z,7.40
2022-11-21T16:50:39.556Z,9.73
2022-11-21T16:52:41.244Z,7.63
2022-11-21T16:54:42.907Z,10.35
2022-11-21T16:56:44.666Z,10.38
2022-11-21T16:58:47.265Z,12.48
2022-11-21T17:00:49.027Z,14.10
2022-11-21T17:02:51.498Z,14.15
2022-11-21T17:04:52.908Z,17.10
2022-11-21T17:06:54.469Z,20.70
2022-11-21T17:08:56.409Z,18.60
2022-11-21T17:10:58.193Z,19.98
2022-11-21T17:13:00.012Z,15.95
2022-11-21T17:15:01.746Z,15.57
2022-11-21T17:17:03.382Z,15.00
2022-11-21T17:19:05.179Z,15.18
2022-11-21T17:21:09.018Z,15.30
2022-11-21T17:23:10.695Z,13.35
2022-11-21T17:25:12.742Z,12.68
2022-11-21T17:27:17.314Z,14.13
2022-11-21T17:29:19.024Z,15.13
2022-11-21T17:31:21.111Z,14.63
2022-11-21T17:33:22.836Z,13.75
2022-11-21T17:35:24.435Z,17.77
2022-11-21T17:37:26.088Z,11.38
2022-11-21T17:39:29.935Z,9.73
2022-11-21T17:41:32.184Z,10.82
2022-11-21T17:43:37.071Z,11.73
2022-11-21T17:45:38.924Z,10.32
2022-11-21T17:47:44.154Z,11.30
2022-11-21T17:49:48.701Z,11.30
2022-11-21T17:51:55.194Z,10.75
2022-11-21T17:53:59.600Z,14.10
2022-11-21T17:56:04.173Z,11.43
2022-11-21T17:58:17.427Z,11.82
2022-11-21T18:00:19.308Z,13.15
2022-11-21T18:02:22.373Z,12.73
2022-11-21T18:04:24.246Z,11.38
2022-11-21T18:06:28.495Z,11.20
2022-11-21T18:08:35.060Z,9.70
2022-11-21T18:10:43.409Z,10.50
2022-11-21T18:12:45.709Z,9.77
2022-11-21T18:14:47.702Z,9.32
2022-11-21T18:16:52.992Z,9.82
2022-11-21T18:19:15.606Z,8.10
2022-11-21T18:21:22.245Z,8.73
2022-11-21T18:23:24.194Z,10.38
2022-11-21T18:25:34.640Z,7.15
2022-11-21T18:27:39.328Z,7.30
2022-11-21T18:29:44.023Z,9.02
2022-11-21T18:31:45.953Z,6.50
2022-11-21T18:33:54.165Z,9.57
2022-11-21T18:35:55.847Z,8.85
2022-11-21T18:37:58.211Z,8.85
2022-11-21T18:39:59.854Z,6.65
2022-11-21T18:42:08.852Z,6.90
2022-11-21T18:44:12.657Z,8.75
2022-11-21T18:46:16.482Z,8.23
2022-11-21T18:48:18.234Z,9.18
2022-11-21T18:50:24.701Z,9.95
2022-11-21T18:52:28.591Z,7.47
2022-11-21T18:54:33.158Z,8.02
2022-11-21T18:56:35.561Z,7.97
2022-11-21T18:58:38.812Z,8.25
2022-11-21T19:00:40.646Z,7.55
2022-11-21T19:02:42.274Z,6.85
2022-11-21T19:04:44.042Z,7.35
2022-11-21T19:06:45.781Z,6.78
2022-11-21T19:08:53.328Z,5.78
2022-11-21T19:10:55.008Z,7.43
2022-11-21T19:12:56.651Z,7.82
2022-11-21T19:15:07.581Z,6.95
2022-11-21T19:17:10.438Z,5.68
2022-11-21T19:21:39.801Z,7.05
2022-11-21T19:23:45.605Z,7.30
2022-11-21T19:25:47.396Z,5.55
2022-11-21T19:27:49.031Z,6.35
2022-11-21T19:29:55.479Z,4.55
2022-11-21T19:31:57.028Z,5.70
2022-11-21T19:33:58.542Z,6.20
2022-11-21T19:36:20.627Z,5.97
2022-11-21T19:38:29.787Z,5.43
2022-11-21T19:40:51.591Z,6.38
2022-11-21T19:42:53.119Z,5.32
2022-11-21T19:44:55.444Z,6.18
2022-11-21T19:46:57.324Z,6.03
2022-11-21T19:49:01.820Z,5.80
2022-11-21T19:51:06.106Z,5.25
2022-11-21T19:53:07.946Z,4.18
2022-11-21T19:55:11.605Z,4.22
2022-11-21T19:57:14.207Z,4.78
2022-11-21T19:59:15.882Z,5.00
2022-11-21T20:01:20.283Z,6.13
2022-11-21T20:03:24.877Z,5.30
2022-11-21T20:05:26.660Z,4.35
2022-11-21T20:07:28.331Z,4.90
2022-11-21T20:09:34.461Z,7.00
2022-11-21T20:11:39.533Z,5.00
2022-11-21T20:13:45.938Z,4.85
2022-11-21T20:15:47.938Z,4.78
2022-11-21T20:17:50.680Z,5.70
2022-11-21T20:19:52.289Z,6.03
2022-11-21T20:21:54.122Z,4.43
2022-11-21T20:23:59.545Z,6.82
2022-11-21T20:26:07.253Z,5.40
2022-11-21T20:28:11.784Z,5.18
2022-11-21T20:30:13.843Z,4.40
2022-11-21T20:32:15.535Z,7.43
2022-11-21T20:34:17.319Z,4.13
2022-11-21T20:36:21.891Z,4.05
2022-11-21T20:38:24.634Z,5.28
2022-11-21T20:40:26.614Z,3.75
2022-11-21T20:42:28.336Z,6.25
2022-11-21T20:45:54.332Z,5.28
2022-11-21T20:47:18.581Z,4.85
2022-11-21T20:49:20.108Z,3.60
2022-11-21T20:53:51.856Z,3.58
2022-11-21T20:56:12.089Z,4.53
2022-11-21T20:58:15.669Z,4.43
2022-11-21T21:00:17.930Z,3.05
2022-11-21T21:02:19.599Z,2.80
2022-11-21T21:04:21.460Z,5.13
2022-11-21T21:06:26.540Z,3.42
2022-11-21T21:08:28.671Z,4.47
2022-11-21T21:10:51.445Z,2.80
2022-11-21T21:12:55.254Z,4.40
2022-11-21T21:14:57.397Z,3.63
2022-11-21T21:16:59.359Z,3.30
2022-11-21T21:19:03.274Z,3.95
2022-11-21T21:21:16.905Z,3.30
2022-11-21T21:23:22.025Z,5.00
2022-11-21T21:25:24.095Z,4.07
2022-11-21T21:27:34.697Z,4.53
2022-11-21T21:29:36.806Z,4.82
2022-11-21T21:31:39.113Z,7.05
2022-11-21T21:33:41.444Z,8.20
2022-11-21T21:35:45.352Z,6.63
2022-11-21T21:37:48.395Z,7.07
2022-11-21T21:39:50.132Z,5.53
2022-11-21T21:41:52.009Z,5.38
2022-11-21T21:43:55.506Z,6.70
2022-11-21T21:46:03.191Z,8.45
2022-11-21T21:48:04.976Z,9.70
2022-11-21T21:50:10.264Z,10.98
2022-11-21T21:52:17.390Z,14.95
2022-11-21T21:54:20.645Z,11.00
2022-11-21T21:56:24.555Z,15.02
2022-11-21T21:58:29.367Z,12.13
2022-11-21T22:00:37.082Z,16.02
2022-11-21T22:02:39.583Z,16.13
2022-11-21T22:04:41.166Z,14.38
2022-11-21T22:06:42.698Z,13.93
2022-11-21T22:08:45.908Z,16.73
2022-11-21T22:10:47.410Z,17.83
2022-11-21T22:12:49.111Z,19.02
2022-11-21T22:14:50.714Z,18.80
2022-11-21T22:16:52.541Z,16.75
2022-11-21T22:18:54.405Z,17.80
2022-11-21T22:20:56.174Z,15.77
2022-11-21T22:23:00.533Z,17.00
2022-11-21T22:25:02.434Z,14.13
2022-11-21T22:27:04.026Z,31.88
2022-11-21T22:29:06.477Z,45.05
2022-11-21T22:31:08.531Z,45.38
2022-11-21T22:33:10.093Z,35.88
2022-11-21T22:35:11.735Z,24.92
2022-11-21T22:37:13.494Z,18.33
2022-11-21T22:39:18.842Z,15.48
2022-11-21T22:41:24.470Z,12.57
2022-11-21T22:43:27.324Z,10.65
2022-11-21T22:45:31.729Z,8.38
2022-11-21T22:47:33.370Z,8.90
2022-11-21T22:49:35.099Z,7.38
2022-11-21T22:51:36.867Z,7.15
2022-11-21T22:53:40.266Z,8.32
2022-11-21T22:55:45.247Z,5.80
2022-11-21T22:57:46.862Z,7.40
2022-11-21T22:59:48.976Z,7.90
2022-11-21T23:01:50.631Z,5.93
2022-11-21T23:03:55.801Z,5.22
2022-11-21T23:06:04.870Z,5.65
2022-11-21T23:08:08.953Z,6.97
2022-11-21T23:10:11.049Z,7.15
2022-11-21T23:12:12.927Z,7.60
2022-11-21T23:14:14.730Z,10.07
2022-11-21T23:16:17.288Z,12.38
2022-11-21T23:18:18.942Z,9.63
2022-11-21T23:20:29.123Z,12.65
2022-11-21T23:22:30.607Z,10.77
2022-11-21T23:24:35.561Z,8.35
2022-11-21T23:26:37.199Z,10.43
2022-11-21T23:28:38.778Z,8.85
2022-11-21T23:30:40.422Z,8.30
2022-11-21T23:32:42.165Z,10.55
2022-11-21T23:34:43.813Z,10.50
2022-11-21T23:36:45.564Z,8.32
2022-11-21T23:38:47.162Z,7.47
2022-11-21T23:40:49.645Z,8.18
2022-11-21T23:42:51.637Z,6.35
2022-11-21T23:44:53.697Z,8.13
2022-11-21T23:47:01.069Z,8.13
2022-11-21T23:49:02.896Z,7.32
2022-11-21T23:51:04.523Z,7.03
2022-11-21T23:53:06.183Z,8.45
2022-11-21T23:55:08.193Z,8.25
2022-11-21T23:57:12.147Z,8.80
2022-11-21T23:59:13.717Z,8.63
